Time;durP1;ratioP1;P1;durP2;ratioP2;P2;SDS_P1;SDS_P2;PMS_P1;PMS_P2;Temp;Humidity;BMP_temperature;BMP_pressure;BME280_temperature;BME280_humidity;BME280_pressure;Samples;Min_cycle;Max_cycle;Signal;HPM_P1;HPM_P2
2023/08/29 00:01:20;;;;;;;18.48;10.05;;;;;;;23.14;98.17;96872.09;4502874;31;20075;-80
2023/08/29 00:03:47;;;;;;;19.30;11.10;;;;;;;23.06;98.52;96864.25;4502456;31;20111;-80
2023/08/29 00:06:14;;;;;;;20.48;11.55;;;;;;;22.64;100.00;96846.16;4502758;31;20088;-80
2023/08/29 00:08:41;;;;;;;22.02;11.90;;;;;;;22.33;100.00;96823.28;4502809;31;20575;-80
2023/08/29 00:11:08;;;;;;;21.25;11.32;;;;;;;21.80;100.00;96814.16;4502395;31;20497;-80
2023/08/29 00:13:35;;;;;;;18.25;11.02;;;;;;;21.46;100.00;96803.81;4502557;31;20152;-80
2023/08/29 00:16:02;;;;;;;20.27;11.90;;;;;;;21.62;100.00;96782.81;4502351;31;20538;-80
2023/08/29 00:18:29;;;;;;;23.02;11.48;;;;;;;21.58;100.00;96771.00;4502293;31;20100;-80
2023/08/29 00:20:56;;;;;;;20.50;11.98;;;;;;;21.51;100.00;96749.03;4502640;31;20163;-80
2023/08/29 00:23:23;;;;;;;20.60;12.45;;;;;;;21.63;100.00;96766.09;4501298;31;20120;-80
2023/08/29 00:25:51;;;;;;;20.12;11.35;;;;;;;21.82;100.00;96751.78;4500815;31;20105;-80
2023/08/29 00:28:17;;;;;;;18.27;10.82;;;;;;;21.94;100.00;96731.25;4502451;31;20080;-80
2023/08/29 00:30:44;;;;;;;18.75;11.20;;;;;;;22.10;100.00;96727.75;4501267;31;20123;-80
2023/08/29 00:33:11;;;;;;;19.23;10.80;;;;;;;21.73;100.00;96730.97;4501941;31;20143;-80
2023/08/29 00:35:39;;;;;;;18.52;11.48;;;;;;;22.19;100.00;96740.69;4502265;31;20118;-80
2023/08/29 00:38:06;;;;;;;20.98;10.63;;;;;;;22.58;100.00;96747.78;4502291;31;20100;-80
2023/08/29 00:40:34;;;;;;;20.75;11.50;;;;;;;22.76;100.00;96763.31;4501953;31;20088;-80
2023/08/29 00:43:01;;;;;;;18.92;11.40;;;;;;;22.85;99.77;96762.28;4502071;31;20126;-80
2023/08/29 00:45:31;;;;;;;20.55;11.75;;;;;;;23.04;97.52;96745.22;4501727;31;20168;-80
2023/08/29 00:47:59;;;;;;;19.95;11.63;;;;;;;22.81;100.00;96755.72;4501076;31;20814;-80
2023/08/29 00:50:27;;;;;;;19.12;11.20;;;;;;;22.87;99.43;96754.25;4502166;31;20164;-80
2023/08/29 00:52:58;;;;;;;21.35;10.68;;;;;;;22.65;100.00;96766.28;4503401;31;20100;-80
2023/08/29 00:55:26;;;;;;;20.15;11.75;;;;;;;22.32;100.00;96742.78;4503158;31;20155;-80
2023/08/29 00:57:56;;;;;;;19.25;11.02;;;;;;;21.91;100.00;96723.72;4503174;31;20438;-80
2023/08/29 01:00:24;;;;;;;24.40;13.65;;;;;;;20.85;100.00;96691.47;4502902;31;20075;-80
2023/08/29 01:02:51;;;;;;;21.52;12.48;;;;;;;21.43;100.00;96754.28;4503080;31;20174;-80
2023/08/29 01:05:18;;;;;;;19.67;12.10;;;;;;;21.31;100.00;96721.50;4504104;31;20347;-80
2023/08/29 01:07:44;;;;;;;20.52;11.70;;;;;;;21.99;100.00;96755.19;4502635;31;20102;-80
2023/08/29 01:10:11;;;;;;;21.52;11.77;;;;;;;22.31;100.00;96782.38;4504241;31;20479;-80
2023/08/29 01:12:45;;;;;;;20.35;11.30;;;;;;;21.95;100.00;96778.34;4504207;31;20084;-80
2023/08/29 01:15:24;;;;;;;21.92;11.43;;;;;;;22.45;100.00;96773.81;4502336;31;20104;-80
2023/08/29 01:17:54;;;;;;;20.35;11.00;;;;;;;22.25;100.00;96767.31;4503091;31;20106;-80
2023/08/29 01:20:21;;;;;;;21.92;12.40;;;;;;;22.39;100.00;96780.53;4503051;31;20145;-80
2023/08/29 01:23:02;;;;;;;22.95;10.75;;;;;;;21.79;100.00;96809.03;4502707;31;20096;-80
2023/08/29 01:25:59;;;;;;;18.92;10.13;;;;;;;22.56;100.00;96796.25;4503979;31;20153;-80
2023/08/29 01:28:26;;;;;;;24.48;11.23;;;;;;;22.86;100.00;96799.91;4503874;31;20080;-80
2023/08/29 01:30:53;;;;;;;19.48;10.85;;;;;;;23.00;99.57;96817.59;4504009;31;20097;-80
2023/08/29 01:33:20;;;;;;;21.08;11.55;;;;;;;22.59;100.00;96809.88;4504034;31;20475;-80
2023/08/29 01:35:47;;;;;;;23.50;11.38;;;;;;;22.51;100.00;96792.31;4503665;31;20127;-80
2023/08/29 01:38:17;;;;;;;21.08;11.15;;;;;;;22.44;100.00;96786.13;4503949;31;20497;-80
2023/08/29 01:40:45;;;;;;;20.35;11.68;;;;;;;22.52;100.00;96769.47;4504069;31;20566;-80
2023/08/29 01:43:12;;;;;;;17.83;10.50;;;;;;;22.70;100.00;96771.88;4503540;31;20505;-80
2023/08/29 01:45:39;;;;;;;19.73;11.18;;;;;;;23.07;100.00;96771.19;4503826;31;20156;-80
2023/08/29 01:48:06;;;;;;;20.67;11.10;;;;;;;23.31;99.30;96759.69;4503897;31;20095;-80
2023/08/29 01:50:35;;;;;;;18.62;11.43;;;;;;;23.15;100.00;96755.34;4502389;31;20064;-80
2023/08/29 01:53:02;;;;;;;17.80;10.73;;;;;;;23.45;97.15;96761.53;4502697;31;20171;-80
2023/08/29 01:55:29;;;;;;;25.15;11.35;;;;;;;23.58;94.60;96761.78;4502686;31;20131;-80
2023/08/29 01:57:57;;;;;;;17.77;11.02;;;;;;;23.04;98.51;96764.47;4502379;31;20178;-80
2023/08/29 02:00:24;;;;;;;22.15;12.13;;;;;;;22.96;99.85;96772.41;4503871;31;20095;-80
2023/08/29 02:02:51;;;;;;;18.40;10.57;;;;;;;22.99;99.77;96776.53;4502215;31;20092;-80
2023/08/29 02:05:18;;;;;;;17.58;10.77;;;;;;;23.15;98.65;96780.84;4503816;31;20083;-80
2023/08/29 02:07:45;;;;;;;21.45;12.10;;;;;;;22.41;100.00;96781.19;4503832;31;20094;-80
2023/08/29 02:10:13;;;;;;;17.85;11.57;;;;;;;22.13;100.00;96782.63;4503487;31;20072;-80
2023/08/29 02:12:40;;;;;;;22.15;11.57;;;;;;;22.52;100.00;96796.59;4503738;31;20115;-80
2023/08/29 02:15:07;;;;;;;19.52;10.75;;;;;;;22.26;100.00;96805.72;4503547;31;20091;-80
2023/08/29 02:17:36;;;;;;;23.40;10.52;;;;;;;22.21;100.00;96798.31;4503422;31;20091;-80
2023/08/29 02:20:07;;;;;;;19.80;10.70;;;;;;;22.22;100.00;96792.94;4503737;31;20080;-80
2023/08/29 02:22:34;;;;;;;18.37;10.18;;;;;;;22.32;100.00;96784.00;4503770;31;20088;-80
2023/08/29 02:25:04;;;;;;;22.08;9.63;;;;;;;21.95;100.00;96764.38;4503197;31;20118;-80
2023/08/29 02:27:34;;;;;;;18.90;9.32;;;;;;;22.25;100.00;96760.25;4503696;31;20151;-80
2023/08/29 02:30:04;;;;;;;18.42;9.82;;;;;;;21.79;100.00;96762.59;4503697;31;20068;-80
2023/08/29 02:32:34;;;;;;;18.75;10.20;;;;;;;22.03;100.00;96753.87;4503294;31;20088;-80
2023/08/29 02:35:03;;;;;;;20.27;10.05;;;;;;;22.15;100.00;96744.66;4503453;31;20105;-80
2023/08/29 02:37:31;;;;;;;21.83;10.30;;;;;;;22.11;100.00;96745.16;4503713;31;20088;-80
2023/08/29 02:39:58;;;;;;;19.12;10.70;;;;;;;22.39;100.00;96749.00;4502125;31;20144;-80
2023/08/29 02:42:25;;;;;;;18.20;11.07;;;;;;;22.37;100.00;96745.75;4503649;31;20675;-80
2023/08/29 02:44:52;;;;;;;21.85;10.75;;;;;;;22.56;100.00;96751.56;4503225;31;20095;-80
2023/08/29 02:47:19;;;;;;;19.80;10.30;;;;;;;22.51;100.00;96757.34;4503320;31;20096;-80
2023/08/29 02:49:46;;;;;;;19.15;10.18;;;;;;;22.58;100.00;96753.03;4503462;31;20085;-80
2023/08/29 02:52:12;;;;;;;17.27;10.13;;;;;;;23.20;96.53;96741.69;4503247;31;20099;-80
2023/08/29 02:54:39;;;;;;;22.98;10.30;;;;;;;22.98;97.44;96749.41;4503418;31;20088;-80
2023/08/29 02:57:06;;;;;;;20.08;10.00;;;;;;;22.73;99.31;96751.31;4503468;31;20143;-80
2023/08/29 02:59:33;;;;;;;20.85;11.43;;;;;;;22.67;100.00;96748.56;4503175;31;20404;-80
2023/08/29 03:02:02;;;;;;;21.80;10.35;;;;;;;22.49;100.00;96743.56;4503395;31;20570;-80
2023/08/29 03:04:30;;;;;;;20.35;10.85;;;;;;;22.20;100.00;96750.22;4503416;31;20091;-80
2023/08/29 03:06:57;;;;;;;18.42;10.02;;;;;;;22.46;100.00;96736.00;4502913;31;20107;-80
2023/08/29 03:09:24;;;;;;;16.77;9.57;;;;;;;22.91;98.87;96719.50;4503352;31;20152;-80
2023/08/29 03:11:51;;;;;;;19.73;9.93;;;;;;;23.08;96.71;96733.38;4503452;31;20361;-80
2023/08/29 03:14:18;;;;;;;18.80;10.05;;;;;;;23.14;95.82;96721.31;4501130;31;20122;-80
2023/08/29 03:16:45;;;;;;;21.08;10.00;;;;;;;22.77;98.86;96718.44;4502993;31;20084;-80
2023/08/29 03:19:12;;;;;;;23.73;10.23;;;;;;;22.39;100.00;96700.87;4503269;31;20422;-80
2023/08/29 03:21:39;;;;;;;21.20;10.48;;;;;;;22.47;100.00;96695.59;4502876;31;20140;-80
2023/08/29 03:24:07;;;;;;;20.55;11.63;;;;;;;22.52;100.00;96711.66;4503142;31;20450;-80
2023/08/29 03:26:34;;;;;;;22.73;12.52;;;;;;;22.17;100.00;96712.97;4503085;31;20091;-80
2023/08/29 03:29:01;;;;;;;25.92;14.25;;;;;;;21.62;100.00;96729.50;4502920;31;20159;-80
2023/08/29 03:31:28;;;;;;;29.48;14.85;;;;;;;21.39;100.00;96731.19;4503071;31;20160;-80
2023/08/29 03:33:55;;;;;;;30.67;16.00;;;;;;;21.78;100.00;96739.97;4502785;31;20152;-80
2023/08/29 03:36:22;;;;;;;27.70;15.80;;;;;;;21.48;100.00;96736.25;4503023;31;20797;-80
2023/08/29 03:38:49;;;;;;;31.87;17.58;;;;;;;21.77;100.00;96745.38;4501984;31;20079;-80
2023/08/29 03:41:16;;;;;;;33.88;17.80;;;;;;;21.20;100.00;96742.78;4502688;31;20437;-80
2023/08/29 03:43:43;;;;;;;28.50;16.27;;;;;;;21.31;100.00;96747.72;4502985;31;20088;-80
2023/08/29 03:46:10;;;;;;;32.67;18.45;;;;;;;21.82;100.00;96749.16;4502924;31;20093;-80
2023/08/29 03:48:37;;;;;;;35.40;19.92;;;;;;;21.50;100.00;96752.66;4502789;31;20161;-80
2023/08/29 03:51:08;;;;;;;38.33;20.12;;;;;;;21.66;100.00;96762.28;4503025;31;20437;-80
2023/08/29 03:53:36;;;;;;;36.00;16.35;;;;;;;21.22;100.00;96783.59;4502943;31;20088;-80
2023/08/29 03:56:05;;;;;;;31.92;17.25;;;;;;;21.53;100.00;96767.25;4502598;31;20156;-80
2023/08/29 03:58:32;;;;;;;28.00;14.52;;;;;;;20.93;100.00;96767.47;4502946;31;20102;-80
2023/08/29 04:00:59;;;;;;;30.37;16.15;;;;;;;21.52;100.00;96776.91;4501775;31;20100;-80
2023/08/29 04:03:28;;;;;;;25.02;13.98;;;;;;;21.08;100.00;96769.31;4501302;31;20434;-80
2023/08/29 04:05:55;;;;;;;28.60;15.77;;;;;;;21.23;100.00;96750.31;4502687;31;20151;-80
2023/08/29 04:08:22;;;;;;;26.60;15.38;;;;;;;21.11;100.00;96749.00;4502689;31;20107;-80
2023/08/29 04:10:49;;;;;;;29.23;15.20;;;;;;;21.15;100.00;96727.50;4502451;31;20092;-80
2023/08/29 04:13:16;;;;;;;28.12;15.88;;;;;;;21.25;100.00;96743.09;4502623;31;20110;-80
2023/08/29 04:15:43;;;;;;;27.37;13.73;;;;;;;21.23;100.00;96724.06;4502390;31;20093;-80
2023/08/29 04:18:11;;;;;;;28.85;14.70;;;;;;;21.52;100.00;96726.22;4502149;31;20088;-80
2023/08/29 04:20:38;;;;;;;29.90;15.45;;;;;;;21.25;100.00;96714.22;4502592;31;20430;-80
2023/08/29 04:23:06;;;;;;;28.10;14.00;;;;;;;21.26;100.00;96708.03;4502265;31;20110;-80
2023/08/29 04:25:35;;;;;;;27.55;14.93;;;;;;;21.16;100.00;96702.94;4502492;31;20144;-80
2023/08/29 04:28:03;;;;;;;24.70;13.40;;;;;;;21.16;100.00;96708.19;4504088;31;20076;-80
2023/08/29 04:30:31;;;;;;;27.95;14.77;;;;;;;21.26;100.00;96710.66;4504163;31;20083;-80
2023/08/29 04:32:59;;;;;;;27.10;15.65;;;;;;;20.95;100.00;96700.81;4504437;31;20104;-80
2023/08/29 04:35:26;;;;;;;29.10;16.02;;;;;;;20.96;100.00;96712.94;4504486;31;20468;-80
2023/08/29 04:37:54;;;;;;;27.65;15.70;;;;;;;20.94;100.00;96714.88;4504127;31;20136;-80
2023/08/29 04:40:21;;;;;;;26.83;15.80;;;;;;;21.21;100.00;96723.44;4504419;31;20107;-80
2023/08/29 04:42:52;;;;;;;31.75;15.90;;;;;;;21.18;100.00;96719.34;4504481;31;20132;-80
2023/08/29 04:45:19;;;;;;;25.73;15.00;;;;;;;21.02;100.00;96728.00;4503985;31;20437;-80
2023/08/29 04:47:46;;;;;;;28.12;15.65;;;;;;;21.22;100.00;96739.00;4503074;31;20147;-80
2023/08/29 04:50:14;;;;;;;26.98;15.77;;;;;;;21.46;100.00;96737.38;4504374;31;20149;-80
2023/08/29 04:52:41;;;;;;;26.55;15.10;;;;;;;21.34;100.00;96726.41;4504040;31;20088;-80
2023/08/29 04:55:08;;;;;;;29.40;14.80;;;;;;;21.02;100.00;96714.88;4504111;31;20096;-80
2023/08/29 04:57:36;;;;;;;27.52;15.65;;;;;;;21.41;100.00;96713.44;4504366;31;20068;-80
2023/08/29 05:00:04;;;;;;;27.27;14.68;;;;;;;21.55;100.00;96710.16;4502850;31;20095;-80
2023/08/29 05:02:32;;;;;;;26.40;14.73;;;;;;;21.64;100.00;96712.59;4504277;31;20113;-80
2023/08/29 05:04:59;;;;;;;25.02;14.45;;;;;;;21.53;100.00;96702.44;4504176;31;20092;-80
2023/08/29 05:07:26;;;;;;;28.80;15.52;;;;;;;21.70;100.00;96710.31;4503792;31;20088;-80
2023/08/29 05:09:54;;;;;;;23.45;13.60;;;;;;;21.83;100.00;96716.66;4503082;31;20122;-80
2023/08/29 05:12:21;;;;;;;24.85;14.55;;;;;;;22.05;100.00;96724.81;4503874;31;20570;-80
2023/08/29 05:14:48;;;;;;;24.75;14.80;;;;;;;22.12;100.00;96717.94;4504052;31;20167;-80
2023/08/29 05:17:15;;;;;;;26.42;15.98;;;;;;;21.79;100.00;96723.22;4502888;31;20079;-80
2023/08/29 05:19:43;;;;;;;26.60;15.00;;;;;;;21.86;100.00;96737.31;4503802;31;20099;-80
2023/08/29 05:22:10;;;;;;;24.95;14.93;;;;;;;22.24;100.00;96748.09;4504106;31;20127;-80
2023/08/29 05:24:37;;;;;;;29.17;16.70;;;;;;;21.76;100.00;96741.94;4503895;31;20106;-80
2023/08/29 05:27:04;;;;;;;26.35;16.15;;;;;;;21.94;100.00;96739.13;4503632;31;20106;-80
2023/08/29 05:29:31;;;;;;;28.23;16.35;;;;;;;21.95;100.00;96746.81;4504077;31;20452;-80
2023/08/29 05:31:58;;;;;;;29.77;16.62;;;;;;;21.63;100.00;96745.09;4504104;31;20110;-80
2023/08/29 05:34:25;;;;;;;28.23;16.42;;;;;;;21.98;100.00;96742.22;4503600;31;20159;-80
2023/08/29 05:36:52;;;;;;;28.52;17.15;;;;;;;22.35;100.00;96741.66;4503963;31;20409;-80
2023/08/29 05:39:19;;;;;;;28.67;17.27;;;;;;;22.37;100.00;96742.28;4503659;31;20433;-80
2023/08/29 05:41:46;;;;;;;26.80;18.10;;;;;;;22.09;100.00;96729.56;4503642;31;20506;-79
2023/08/29 05:44:13;;;;;;;28.00;16.50;;;;;;;22.03;100.00;96732.88;4503801;31;20154;-80
2023/08/29 05:46:40;;;;;;;26.52;16.12;;;;;;;22.36;100.00;96730.16;4503755;31;20421;-79
2023/08/29 05:49:08;;;;;;;29.05;16.35;;;;;;;22.36;100.00;96724.91;4503653;31;20103;-79
2023/08/29 05:51:34;;;;;;;32.25;16.87;;;;;;;22.55;100.00;96721.84;4503910;31;20140;-79
2023/08/29 05:54:02;;;;;;;27.65;16.33;;;;;;;22.82;100.00;96725.78;4503700;31;20163;-79
2023/08/29 05:56:29;;;;;;;28.17;15.75;;;;;;;22.40;100.00;96729.63;4503564;31;20429;-79
2023/08/29 05:58:56;;;;;;;29.40;16.35;;;;;;;22.80;100.00;96727.78;4503786;31;20492;-79
2023/08/29 06:01:23;;;;;;;24.95;13.07;;;;;;;22.01;100.00;96737.47;4502382;31;20118;-79
2023/08/29 06:03:50;;;;;;;20.15;11.15;;;;;;;22.56;100.00;96736.63;4503581;31;20084;-79
2023/08/29 06:06:19;;;;;;;18.37;8.77;;;;;;;22.97;100.00;96741.69;4503662;31;20088;-78
2023/08/29 06:08:46;;;;;;;18.58;8.32;;;;;;;23.30;91.65;96740.44;4503421;31;20092;-79
2023/08/29 06:11:13;;;;;;;21.30;9.13;;;;;;;23.89;87.90;96756.38;4503710;31;20100;-78
2023/08/29 06:13:40;;;;;;;18.77;8.80;;;;;;;23.12;91.98;96760.16;4503606;31;20126;-79
2023/08/29 06:16:07;;;;;;;20.98;9.00;;;;;;;23.62;88.70;96767.53;4503350;31;20099;-78
2023/08/29 06:18:34;;;;;;;19.70;8.55;;;;;;;23.55;87.65;96754.22;4503734;31;20092;-79
2023/08/29 06:21:02;;;;;;;20.70;8.65;;;;;;;23.79;85.16;96758.47;4503512;31;20179;-79
2023/08/29 06:23:29;;;;;;;16.75;8.18;;;;;;;23.28;87.91;96763.47;4503179;31;20087;-77
2023/08/29 06:25:56;;;;;;;18.02;9.25;;;;;;;23.14;87.57;96768.69;4503527;31;20163;-76
2023/08/29 06:28:23;;;;;;;17.10;7.87;;;;;;;22.99;89.36;96758.91;4503426;31;20478;-77
2023/08/29 06:30:50;;;;;;;17.95;8.30;;;;;;;23.13;87.40;96756.53;4503252;31;20159;-78
2023/08/29 06:33:17;;;;;;;18.17;9.07;;;;;;;23.16;87.03;96764.06;4503463;31;20103;-78
2023/08/29 06:35:45;;;;;;;16.45;8.73;;;;;;;23.22;88.01;96764.19;4503456;31;20131;-77
2023/08/29 06:38:12;;;;;;;20.83;8.98;;;;;;;23.22;87.56;96766.81;4503141;31;20096;-77
2023/08/29 06:40:39;;;;;;;17.83;8.88;;;;;;;23.26;85.37;96778.63;4503561;31;20151;-77
2023/08/29 06:43:06;;;;;;;18.60;8.30;;;;;;;23.43;85.18;96766.16;4503378;31;20513;-78
2023/08/29 06:45:32;;;;;;;18.40;8.70;;;;;;;23.03;88.67;96775.16;4503223;31;20110;-78
2023/08/29 06:47:59;;;;;;;22.25;8.95;;;;;;;22.93;89.57;96778.00;4503355;31;20437;-76
2023/08/29 06:50:26;;;;;;;17.62;8.57;;;;;;;23.43;86.11;96776.69;4502192;31;20114;-77
2023/08/29 06:52:53;;;;;;;15.18;7.85;;;;;;;23.39;85.61;96772.75;4503416;31;20162;-76
2023/08/29 06:55:20;;;;;;;15.85;8.27;;;;;;;23.35;84.65;96763.59;4503251;31;20148;-76
2023/08/29 06:57:47;;;;;;;17.83;8.82;;;;;;;23.81;82.45;96771.44;4503110;31;20347;-76
2023/08/29 07:00:16;;;;;;;19.90;8.68;;;;;;;23.96;81.78;96782.84;4489185;31;20119;-76
2023/08/29 07:02:43;;;;;;;15.57;8.65;;;;;;;24.28;81.41;96788.78;4503452;31;20137;-76
2023/08/29 07:05:10;;;;;;;15.70;7.95;;;;;;;24.16;81.01;96797.13;4502696;31;20068;-76
2023/08/29 07:07:38;;;;;;;18.15;8.30;;;;;;;24.06;82.88;96795.75;4503373;31;20088;-76
2023/08/29 07:10:06;;;;;;;21.83;8.82;;;;;;;24.24;81.67;96802.31;4503285;31;20096;-76
2023/08/29 07:12:33;;;;;;;17.35;8.82;;;;;;;24.48;80.32;96795.97;4502924;31;20095;-76
2023/08/29 07:15:00;;;;;;;18.87;8.25;;;;;;;24.58;79.65;96797.53;4503074;31;20140;-76
2023/08/29 07:17:29;;;;;;;19.50;8.48;;;;;;;24.67;78.95;96809.56;4503144;31;20100;-76
2023/08/29 07:19:56;;;;;;;17.92;8.85;;;;;;;24.48;80.48;96801.25;4503161;31;20167;-77
2023/08/29 07:22:23;;;;;;;17.73;9.48;;;;;;;23.77;85.19;96797.34;4503220;31;20103;-77
2023/08/29 07:24:51;;;;;;;17.60;9.02;;;;;;;23.39;87.46;96796.44;4503044;31;20578;-77
2023/08/29 07:27:18;;;;;;;19.90;10.23;;;;;;;23.42;89.67;96796.12;4502869;31;20106;-77
2023/08/29 07:29:46;;;;;;;21.92;9.98;;;;;;;23.72;88.49;96798.88;4503105;31;20425;-77
2023/08/29 07:32:13;;;;;;;19.30;10.55;;;;;;;23.80;87.40;96799.59;4503134;31;20424;-77
2023/08/29 07:34:40;;;;;;;21.77;10.05;;;;;;;24.02;86.56;96812.91;4502548;31;20100;-77
2023/08/29 07:37:08;;;;;;;20.00;10.57;;;;;;;24.03;86.39;96817.16;4503098;31;20111;-77
2023/08/29 07:39:35;;;;;;;23.87;10.73;;;;;;;23.32;92.53;96813.97;4502563;31;20453;-78
2023/08/29 07:42:02;;;;;;;21.62;10.30;;;;;;;23.54;91.01;96807.06;4502992;31;20111;-78
2023/08/29 07:44:30;;;;;;;19.45;10.00;;;;;;;23.77;89.84;96814.94;4502862;31;20098;-78
2023/08/29 07:46:57;;;;;;;18.08;10.10;;;;;;;23.58;91.33;96832.88;4501640;31;20159;-78
2023/08/29 07:49:42;;;;;;;21.23;10.38;;;;;;;23.45;91.70;96831.78;4502917;31;20133;-78
2023/08/29 07:52:09;;;;;;;17.42;10.35;;;;;;;23.34;91.94;96839.09;4501687;31;20084;-78
2023/08/29 07:54:36;;;;;;;19.83;10.30;;;;;;;23.67;90.40;96837.06;4501322;31;20076;-78
2023/08/29 07:57:03;;;;;;;19.90;10.13;;;;;;;23.32;nan;96842.91;4501517;31;20104;-78
2023/08/29 07:59:31;;;;;;;20.58;9.77;;;;;;;23.03;94.25;96844.38;4501627;31;36558;-78
2023/08/29 08:01:58;;;;;;;20.62;10.38;;;;;;;23.56;89.14;96832.19;4502028;31;20076;-77
2023/08/29 08:04:25;;;;;;;19.98;9.85;;;;;;;23.39;90.51;96841.19;4502257;31;20084;-77
2023/08/29 08:06:53;;;;;;;18.55;9.52;;;;;;;22.90;90.84;96846.75;4501380;31;20119;-77
2023/08/29 08:09:20;;;;;;;18.12;9.35;;;;;;;23.10;91.55;96844.50;4502075;31;20088;-77
2023/08/29 08:11:47;;;;;;;19.55;10.15;;;;;;;22.95;93.37;96833.06;4502366;31;20096;-76
2023/08/29 08:14:14;;;;;;;20.30;10.82;;;;;;;22.67;97.26;96853.72;4501991;31;20465;-76
2023/08/29 08:16:40;;;;;;;21.73;9.95;;;;;;;22.72;96.99;96852.22;4501775;31;20150;-76
2023/08/29 08:19:09;;;;;;;19.10;10.13;;;;;;;22.81;95.97;96851.19;4502379;31;20080;-75
2023/08/29 08:21:36;;;;;;;20.20;10.43;;;;;;;22.61;97.33;96847.31;4502218;31;20094;-77
2023/08/29 08:24:04;;;;;;;19.42;10.82;;;;;;;22.49;99.22;96849.50;4502145;31;20119;-76
2023/08/29 08:26:31;;;;;;;18.77;10.52;;;;;;;22.64;100.00;96841.72;4502494;31;20153;-77
2023/08/29 08:28:59;;;;;;;19.75;10.90;;;;;;;22.28;100.00;96841.34;4502116;31;20477;-77
2023/08/29 08:31:26;;;;;;;21.67;11.25;;;;;;;22.59;99.16;96849.31;4502453;31;20079;-77
2023/08/29 08:33:56;;;;;;;18.70;10.88;;;;;;;22.27;100.00;96844.97;4502112;31;20136;-77
2023/08/29 08:36:23;;;;;;;19.12;9.60;;;;;;;22.32;100.00;96845.25;4500771;31;20110;-76
2023/08/29 08:38:50;;;;;;;20.65;9.93;;;;;;;22.02;99.37;96835.47;4502173;31;20477;-75
2023/08/29 08:41:18;;;;;;;19.87;9.43;;;;;;;22.06;98.83;96828.88;4502175;31;20370;-76
2023/08/29 08:43:45;;;;;;;22.27;11.73;;;;;;;22.22;98.26;96845.47;4499743;31;20510;-76
2023/08/29 08:46:14;;;;;;;19.50;10.57;;;;;;;22.33;100.00;96853.97;4502190;31;20354;-75
2023/08/29 08:48:42;;;;;;;22.27;11.30;;;;;;;22.38;99.52;96844.59;4502004;31;20080;-75
2023/08/29 08:51:09;;;;;;;20.23;10.38;;;;;;;22.46;100.00;96846.41;4501742;31;20176;-76
2023/08/29 08:53:37;;;;;;;21.87;10.50;;;;;;;22.14;100.00;96849.91;4501850;31;20076;-76
2023/08/29 08:56:04;;;;;;;21.70;10.80;;;;;;;22.13;100.00;96840.41;4500854;31;20103;-76
2023/08/29 08:58:31;;;;;;;17.67;10.43;;;;;;;22.41;100.00;96840.81;4501720;31;20525;-76
2023/08/29 09:00:58;;;;;;;20.98;10.10;;;;;;;22.37;100.00;96840.34;4501112;31;20163;-76
2023/08/29 09:03:26;;;;;;;18.87;9.88;;;;;;;22.61;98.84;96844.69;4500841;31;20098;-77
2023/08/29 09:05:53;;;;;;;19.62;10.68;;;;;;;22.72;98.51;96843.50;4501585;31;20141;-77
2023/08/29 09:08:21;;;;;;;20.48;10.30;;;;;;;22.78;97.27;96841.03;4501917;31;20101;-77
2023/08/29 09:10:52;;;;;;;17.45;9.85;;;;;;;22.77;97.71;96846.47;4501793;31;20140;-78
2023/08/29 09:13:20;;;;;;;21.20;10.07;;;;;;;22.79;95.85;96853.19;4502985;31;20144;-78
2023/08/29 09:15:47;;;;;;;18.08;9.63;;;;;;;22.61;97.90;96851.75;4502771;31;20130;-78
2023/08/29 09:18:23;;;;;;;17.90;9.38;;;;;;;22.84;95.25;96851.88;4503639;31;20123;-78
2023/08/29 09:20:51;;;;;;;19.35;9.55;;;;;;;23.07;93.67;96852.72;4504196;31;20102;-77
2023/08/29 09:23:27;;;;;;;24.90;10.25;;;;;;;23.05;94.28;96847.66;4503887;31;20485;-77
2023/08/29 09:25:55;;;;;;;22.60;10.88;;;;;;;23.29;93.78;96849.34;4503545;31;20172;-77
2023/08/29 09:28:25;;;;;;;19.55;10.50;;;;;;;23.17;94.17;96858.59;4503962;31;20097;-77
2023/08/29 09:30:53;;;;;;;18.02;9.63;;;;;;;23.66;92.45;96864.41;4504111;31;20080;-76
2023/08/29 09:33:22;;;;;;;20.90;10.07;;;;;;;23.64;90.95;96858.50;4503512;31;20087;-77
2023/08/29 09:35:50;;;;;;;18.42;9.98;;;;;;;23.67;91.63;96852.06;4503884;31;20100;-76
2023/08/29 09:38:20;;;;;;;22.20;10.55;;;;;;;23.41;92.13;96855.03;4503848;31;20127;-77
2023/08/29 09:40:51;;;;;;;18.12;9.80;;;;;;;23.47;92.98;96856.94;4503599;31;20452;-77
2023/08/29 09:43:18;;;;;;;20.80;10.07;;;;;;;23.32;94.44;96859.50;4503875;31;20080;-78
2023/08/29 09:45:50;;;;;;;18.70;10.05;;;;;;;23.44;92.60;96853.84;4503622;31;20164;-76
2023/08/29 09:48:20;;;;;;;18.15;9.40;;;;;;;23.58;92.84;96853.94;4502565;31;20119;-77
2023/08/29 09:50:49;;;;;;;20.30;9.90;;;;;;;23.73;91.79;96855.81;4503966;31;20137;-78
2023/08/29 09:53:17;;;;;;;18.42;9.48;;;;;;;23.72;91.95;96859.44;4503287;31;20104;-78
2023/08/29 09:55:59;;;;;;;19.45;10.25;;;;;;;24.01;89.11;96858.69;4502633;31;20100;-78
2023/08/29 09:58:27;;;;;;;19.60;10.35;;;;;;;24.03;90.17;96854.06;4502668;31;20122;-78
2023/08/29 10:00:54;;;;;;;20.90;10.68;;;;;;;23.41;93.31;96865.56;4502204;31;20096;-78
2023/08/29 10:03:22;;;;;;;20.80;9.82;;;;;;;24.05;89.74;96863.44;4503649;31;20079;-78
2023/08/29 10:05:50;;;;;;;17.58;9.85;;;;;;;23.87;90.48;96870.84;4502462;31;20100;-77
2023/08/29 10:08:43;;;;;;;21.65;11.63;;;;;;;23.79;91.01;96868.25;4502049;31;20160;-77
2023/08/29 10:11:10;;;;;;;20.40;10.73;;;;;;;23.23;94.94;96860.56;4497455;31;20514;-77
2023/08/29 10:13:39;;;;;;;21.12;10.90;;;;;;;23.19;98.55;96855.81;4503449;31;20147;-77
2023/08/29 10:16:07;;;;;;;19.12;10.90;;;;;;;23.42;96.76;96853.22;4502883;31;20153;-77
2023/08/29 10:18:35;;;;;;;24.10;11.90;;;;;;;23.01;100.00;96854.25;4503493;31;20111;-78
2023/08/29 10:21:03;;;;;;;22.52;13.00;;;;;;;23.27;100.00;96845.22;4503077;31;20481;-77
2023/08/29 10:23:31;;;;;;;22.65;12.77;;;;;;;23.21;100.00;96849.38;4502358;31;20084;-77
2023/08/29 10:26:00;;;;;;;19.45;11.85;;;;;;;24.15;100.00;96842.94;4503452;31;20574;-78
2023/08/29 10:28:28;;;;;;;23.17;12.60;;;;;;;24.03;100.00;96844.38;4503143;31;20088;-78
2023/08/29 10:31:00;;;;;;;21.12;12.30;;;;;;;24.44;100.00;96846.59;4502265;31;20413;-78
2023/08/29 10:33:27;;;;;;;21.75;12.00;;;;;;;25.16;93.22;96848.56;4503402;31;20129;-79
2023/08/29 10:35:54;;;;;;;21.85;12.37;;;;;;;24.96;90.24;96856.22;4502950;31;20428;-80
2023/08/29 10:38:25;;;;;;;22.37;11.65;;;;;;;24.45;94.76;96856.13;4502381;31;20108;-79
2023/08/29 10:41:03;;;;;;;20.48;11.88;;;;;;;24.48;93.25;96848.72;4503624;31;20096;-78
2023/08/29 10:43:29;;;;;;;20.33;11.25;;;;;;;24.25;92.14;96853.22;4503143;31;20163;-78
2023/08/29 10:45:59;;;;;;;20.10;11.63;;;;;;;24.02;95.99;96844.50;4503258;31;20099;-78
2023/08/29 10:48:30;;;;;;;21.33;12.10;;;;;;;24.29;95.20;96837.84;4502148;31;20104;-78
2023/08/29 10:51:14;;;;;;;19.73;10.77;;;;;;;24.56;97.25;96841.69;4502975;31;20114;-78
2023/08/29 10:53:51;;;;;;;17.30;10.15;;;;;;;25.35;85.54;96838.22;4503368;31;20084;-79
2023/08/29 10:56:23;;;;;;;17.45;10.25;;;;;;;25.27;84.94;96834.88;4502956;31;20092;-79
2023/08/29 10:58:54;;;;;;;15.60;9.82;;;;;;;25.07;82.84;96829.38;4503285;31;20100;-79
2023/08/29 11:01:28;;;;;;;17.50;9.98;;;;;;;24.92;83.87;96834.66;4503407;31;20720;-79
2023/08/29 11:03:55;;;;;;;21.67;10.50;;;;;;;24.37;85.12;96830.72;4502835;31;20156;-79
2023/08/29 11:06:24;;;;;;;18.85;10.60;;;;;;;23.90;90.94;96831.78;4502062;31;20122;-79
2023/08/29 11:08:51;;;;;;;17.80;10.80;;;;;;;24.44;89.36;96826.31;4503227;31;20096;-79
2023/08/29 11:11:22;;;;;;;16.05;8.10;;;;;;;25.34;80.91;96838.41;4501650;31;20108;-79
2023/08/29 11:14:03;;;;;;;18.67;10.65;;;;;;;24.92;80.21;96845.22;4503040;31;20157;-80
2023/08/29 11:16:34;;;;;;;16.67;9.23;;;;;;;25.00;80.91;96841.66;4502738;31;20092;-79
2023/08/29 11:19:06;;;;;;;17.67;9.73;;;;;;;25.01;76.49;96845.94;4502875;31;20135;-79